Time;durP1;ratioP1;P1;durP2;ratioP2;P2;SDS_P1;SDS_P2;PMS_P1;PMS_P2;Temp;Humidity;BMP_temperature;BMP_pressure;BME280_temperature;BME280_humidity;BME280_pressure;Samples;Min_cycle;Max_cycle;Signal;HPM_P1;HPM_P2
2023/05/07 00:00:06;;;;;;;;;;;;;;;19.72;42.63;101268.02;103452;1284;61393;-83
2023/05/07 00:02:35;;;;;;;;;;;;;;;19.72;42.74;101264.09;103668;1286;61372;-83
2023/05/07 00:05:04;;;;;;;;;;;;;;;19.72;42.71;101265.19;103674;1288;73273;-83
2023/05/07 00:07:30;;;;;;;;;;;;;;;19.71;42.65;101268.24;103524;1291;74501;-83
2023/05/07 00:09:56;;;;;;;;;;;;;;;19.72;42.69;101273.04;103588;1286;62553;-83
2023/05/07 00:12:22;;;;;;;;;;;;;;;19.72;42.86;101275.92;103628;1285;62036;-83
2023/05/07 00:14:47;;;;;;;;;;;;;;;19.71;42.73;101276.46;103634;1285;61429;-83
2023/05/07 00:17:16;;;;;;;;;;;;;;;19.71;42.81;101280.75;103507;1285;75423;-84
2023/05/07 00:19:42;;;;;;;;;;;;;;;19.71;42.73;101279.86;103611;1287;61299;-82
2023/05/07 00:22:10;;;;;;;;;;;;;;;19.72;42.74;101276.80;103608;1290;61411;-83
2023/05/07 00:24:36;;;;;;;;;;;;;;;19.71;42.72;101272.71;103552;1285;72488;-82
2023/05/07 00:27:02;;;;;;;;;;;;;;;19.71;42.97;101268.43;103658;1285;61411;-82
2023/05/07 00:29:30;;;;;;;;;;;;;;;19.71;42.86;101267.19;103499;1291;61580;-84
2023/05/07 00:31:56;;;;;;;;;;;;;;;19.70;42.90;101271.50;103644;1285;61266;-83
2023/05/07 00:34:24;;;;;;;;;;;;;;;19.70;42.83;101269.20;103523;1291;61384;-83
2023/05/07 00:36:50;;;;;;;;;;;;;;;19.70;43.03;101269.02;103628;1284;74861;-83
2023/05/07 00:39:18;;;;;;;;;;;;;;;19.71;42.79;101264.02;103389;1285;61781;-84
2023/05/07 00:41:44;;;;;;;;;;;;;;;19.70;42.98;101264.41;103390;1285;61384;-83
2023/05/07 00:44:16;;;;;;;;;;;;;;;19.71;43.01;101268.80;103743;1285;72393;-83
2023/05/07 00:46:41;;;;;;;;;;;;;;;19.70;42.85;101268.32;103771;1285;74470;-83
2023/05/07 00:49:16;;;;;;;;;;;;;;;19.70;42.98;101269.42;103597;1285;61401;-82
2023/05/07 00:51:41;;;;;;;;;;;;;;;19.70;42.96;101271.02;103690;1285;61618;-83
2023/05/07 00:54:13;;;;;;;;;;;;;;;19.70;43.06;101272.80;103530;1290;73473;-83
2023/05/07 00:56:39;;;;;;;;;;;;;;;19.69;43.02;101273.17;103640;1284;75451;-83
2023/05/07 00:59:25;;;;;;;;;;;;;;;19.69;43.12;101270.15;103575;1285;61381;-83
2023/05/07 01:01:54;;;;;;;;;;;;;;;19.69;42.99;101272.14;103738;1288;62449;-82
2023/05/07 01:04:19;;;;;;;;;;;;;;;19.69;43.08;101272.85;103668;1286;73350;-83
2023/05/07 01:07:01;;;;;;;;;;;;;;;19.69;43.01;101271.41;103431;1286;75498;-83
2023/05/07 01:09:26;;;;;;;;;;;;;;;19.69;43.12;101271.23;103396;1285;61328;-83
2023/05/07 01:11:52;;;;;;;;;;;;;;;19.69;43.18;101273.39;103706;1285;61394;-82
2023/05/07 01:14:17;;;;;;;;;;;;;;;19.68;43.19;101275.39;103575;1285;62496;-84
2023/05/07 01:16:48;;;;;;;;;;;;;;;19.68;43.07;101277.70;103379;1286;61415;-83
2023/05/07 01:19:14;;;;;;;;;;;;;;;19.68;43.22;101271.62;103684;1285;61275;-82
2023/05/07 01:21:39;;;;;;;;;;;;;;;19.68;43.11;101270.93;103699;1286;61272;-83
2023/05/07 01:24:05;;;;;;;;;;;;;;;19.68;43.05;101270.60;103507;1290;61426;-84
2023/05/07 01:26:31;;;;;;;;;;;;;;;19.68;43.20;101270.61;103715;1284;61310;-83
2023/05/07 01:28:59;;;;;;;;;;;;;;;19.68;43.21;101268.65;103706;1285;61419;-83
2023/05/07 01:31:25;;;;;;;;;;;;;;;19.68;43.06;101267.95;103563;1285;61478;-83
2023/05/07 01:33:50;;;;;;;;;;;;;;;19.67;43.19;101270.63;103433;1284;61488;-83
2023/05/07 01:36:17;;;;;;;;;;;;;;;19.67;43.01;101265.80;103566;1287;62927;-83
2023/05/07 01:38:45;;;;;;;;;;;;;;;19.67;43.15;101264.23;103641;1285;61325;-83
2023/05/07 01:41:12;;;;;;;;;;;;;;;19.67;43.08;101259.22;103667;1287;61152;-83
2023/05/07 01:43:37;;;;;;;;;;;;;;;19.67;43.18;101259.95;103427;1292;61726;-82
2023/05/07 01:46:12;;;;;;;;;;;;;;;19.67;43.18;101259.23;103559;1291;61318;-82
2023/05/07 01:48:47;;;;;;;;;;;;;;;19.66;43.16;101257.11;103557;1291;61359;-83
2023/05/07 01:51:13;;;;;;;;;;;;;;;19.66;43.15;101255.68;103591;1285;61478;-84
2023/05/07 01:53:38;;;;;;;;;;;;;;;19.66;43.24;101257.11;103407;1285;61557;-83
2023/05/07 01:56:05;;;;;;;;;;;;;;;19.66;43.17;101251.61;103591;1285;61416;-82
2023/05/07 01:58:33;;;;;;;;;;;;;;;19.66;43.13;101248.56;103525;1291;61353;-83
2023/05/07 02:00:58;;;;;;;;;;;;;;;19.66;43.12;101248.59;103554;1285;61357;-83
2023/05/07 02:03:24;;;;;;;;;;;;;;;19.66;43.21;101248.57;103620;1285;61375;-82
2023/05/07 02:05:50;;;;;;;;;;;;;;;19.66;43.18;101245.91;103589;1285;62565;-83
2023/05/07 02:08:15;;;;;;;;;;;;;;;19.66;43.15;101245.55;103608;1285;61955;-83
2023/05/07 02:10:42;;;;;;;;;;;;;;;19.65;43.19;101247.00;103714;1288;61357;-83
2023/05/07 02:13:08;;;;;;;;;;;;;;;19.65;43.30;101246.48;103666;1285;62781;-83
2023/05/07 02:15:42;;;;;;;;;;;;;;;19.65;43.18;101243.61;103630;1285;61327;-83
2023/05/07 02:18:08;;;;;;;;;;;;;;;19.65;43.18;101242.02;103631;1287;74441;-83
2023/05/07 02:20:34;;;;;;;;;;;;;;;19.65;43.10;101239.17;103655;1285;61284;-84
2023/05/07 02:23:02;;;;;;;;;;;;;;;19.64;43.15;101239.77;103631;1291;61406;-83
2023/05/07 02:25:29;;;;;;;;;;;;;;;19.64;43.09;101242.23;103522;1285;73354;-83
2023/05/07 02:27:54;;;;;;;;;;;;;;;19.65;43.12;101240.06;103564;1285;75229;-82
2023/05/07 02:30:21;;;;;;;;;;;;;;;19.64;43.15;101242.41;103534;1285;61380;-83
2023/05/07 02:32:46;;;;;;;;;;;;;;;19.64;43.13;101240.45;103673;1285;62089;-83
2023/05/07 02:35:12;;;;;;;;;;;;;;;19.63;43.10;101240.16;103575;1287;61389;-83
2023/05/07 02:37:38;;;;;;;;;;;;;;;19.63;43.13;101241.91;103609;1285;61403;-83
2023/05/07 02:40:04;;;;;;;;;;;;;;;19.63;43.17;101238.73;103646;1285;61496;-83
2023/05/07 02:42:32;;;;;;;;;;;;;;;19.63;43.14;101234.99;103725;1286;61900;-83
2023/05/07 02:44:59;;;;;;;;;;;;;;;19.63;43.24;101231.98;103565;1285;61382;-84
2023/05/07 02:47:28;;;;;;;;;;;;;;;19.63;43.07;101230.56;103560;1290;72522;-83
2023/05/07 02:49:56;;;;;;;;;;;;;;;19.63;43.10;101228.59;103701;1284;61746;-83
2023/05/07 02:52:22;;;;;;;;;;;;;;;19.62;43.18;101229.84;103537;1291;61640;-83
2023/05/07 02:54:48;;;;;;;;;;;;;;;19.62;42.96;101225.58;103580;1286;61441;-82
2023/05/07 02:57:16;;;;;;;;;;;;;;;19.62;43.04;101225.60;103566;1285;73304;-83
2023/05/07 02:59:42;;;;;;;;;;;;;;;19.62;42.85;101223.08;103588;1286;61423;-82
2023/05/07 03:02:11;;;;;;;;;;;;;;;19.61;43.04;101227.39;103570;1285;61369;-84
2023/05/07 03:04:36;;;;;;;;;;;;;;;19.61;42.94;101228.30;103640;1285;61301;-83
2023/05/07 03:07:07;;;;;;;;;;;;;;;19.61;42.85;101230.45;103621;1285;73385;-82
2023/05/07 03:09:33;;;;;;;;;;;;;;;19.61;43.05;101230.10;103564;1285;74414;-82
2023/05/07 03:12:02;;;;;;;;;;;;;;;19.61;42.98;101229.91;103605;1285;62032;-83
2023/05/07 03:14:28;;;;;;;;;;;;;;;19.60;42.88;101234.58;103574;1285;61449;-83
2023/05/07 03:16:57;;;;;;;;;;;;;;;19.61;42.90;101233.14;103551;1290;73499;-83
2023/05/07 03:19:23;;;;;;;;;;;;;;;19.61;42.91;101237.42;103544;1284;62024;-84
2023/05/07 03:21:52;;;;;;;;;;;;;;;19.60;42.81;101237.27;103632;1285;61324;-85
2023/05/07 03:24:17;;;;;;;;;;;;;;;19.60;42.84;101238.51;103555;1285;61440;-84
2023/05/07 03:26:43;;;;;;;;;;;;;;;19.60;42.88;101236.38;103450;1285;61394;-84
2023/05/07 03:29:09;;;;;;;;;;;;;;;19.61;42.82;101239.22;103520;1285;62572;-83
2023/05/07 03:31:43;;;;;;;;;;;;;;;19.60;42.80;101239.58;103604;1284;61309;-83
2023/05/07 03:34:09;;;;;;;;;;;;;;;19.60;42.79;101240.30;103583;1286;61437;-84
2023/05/07 03:36:40;;;;;;;;;;;;;;;19.60;42.69;101237.26;103527;1285;72333;-83
2023/05/07 03:39:06;;;;;;;;;;;;;;;19.60;42.80;101238.88;103506;1288;74426;-84
2023/05/07 03:41:32;;;;;;;;;;;;;;;19.61;42.87;101242.80;103625;1285;61411;-82
2023/05/07 03:43:58;;;;;;;;;;;;;;;19.61;42.83;101246.16;103532;1291;62478;-83
2023/05/07 03:46:26;;;;;;;;;;;;;;;19.61;42.81;101250.64;103301;1288;61475;-82
2023/05/07 03:48:57;;;;;;;;;;;;;;;19.61;42.83;101252.42;103082;1290;74436;-83
2023/05/07 03:51:25;;;;;;;;;;;;;;;19.61;42.71;101254.92;103059;1291;61726;-82
2023/05/07 03:53:54;;;;;;;;;;;;;;;19.61;42.67;101256.52;103340;1288;61425;-83
2023/05/07 03:56:23;;;;;;;;;;;;;;;19.61;42.63;101252.77;103197;1288;72435;-82
2023/05/07 03:58:51;;;;;;;;;;;;;;;19.61;42.79;101255.09;103340;1288;75265;-83
2023/05/07 04:01:19;;;;;;;;;;;;;;;19.61;42.74;101253.99;103339;1291;62066;-83
2023/05/07 04:03:45;;;;;;;;;;;;;;;19.61;42.58;101252.06;103172;1289;61198;-83
2023/05/07 04:06:13;;;;;;;;;;;;;;;19.61;42.55;101256.69;103100;1288;62540;-83
2023/05/07 04:08:39;;;;;;;;;;;;;;;19.61;42.53;101253.46;103008;1293;74293;-82
2023/05/07 04:11:07;;;;;;;;;;;;;;;19.61;42.55;101250.27;102938;1294;61477;-83
2023/05/07 04:13:33;;;;;;;;;;;;;;;19.62;42.56;101256.32;102948;1294;61563;-83
2023/05/07 04:16:01;;;;;;;;;;;;;;;19.62;42.54;101258.98;103080;1293;61566;-81
2023/05/07 04:18:27;;;;;;;;;;;;;;;19.62;42.48;101263.80;103236;1288;75552;-83
2023/05/07 04:20:52;;;;;;;;;;;;;;;19.61;42.58;101267.23;103308;1292;61618;-83
2023/05/07 04:23:20;;;;;;;;;;;;;;;19.62;42.47;101271.48;103422;1288;61446;-82
2023/05/07 04:25:50;;;;;;;;;;;;;;;19.62;42.49;101277.72;103338;1288;61309;-83
2023/05/07 04:28:15;;;;;;;;;;;;;;;19.62;42.43;101274.15;103282;1294;73475;-83
2023/05/07 04:30:44;;;;;;;;;;;;;;;19.62;42.46;101275.02;103351;1288;62132;-83
2023/05/07 04:33:11;;;;;;;;;;;;;;;19.63;42.43;101275.74;103381;1288;62130;-83
2023/05/07 04:35:37;;;;;;;;;;;;;;;19.62;42.51;101276.45;103299;1288;61302;-83
2023/05/07 04:38:03;;;;;;;;;;;;;;;19.63;42.51;101281.27;103283;1289;62527;-83
2023/05/07 04:40:32;;;;;;;;;;;;;;;19.64;42.35;101284.06;103310;1288;61712;-83
2023/05/07 04:42:58;;;;;;;;;;;;;;;19.64;42.41;101282.09;103302;1288;62522;-82
2023/05/07 04:45:24;;;;;;;;;;;;;;;19.64;42.41;101286.55;103292;1289;61451;-83
2023/05/07 04:47:50;;;;;;;;;;;;;;;19.64;42.33;101285.83;103603;1285;62595;-85
2023/05/07 04:50:19;;;;;;;;;;;;;;;19.64;42.26;101284.92;103516;1291;61785;-83
2023/05/07 04:52:45;;;;;;;;;;;;;;;19.65;42.34;101285.42;103681;1285;61474;-83
2023/05/07 04:55:11;;;;;;;;;;;;;;;19.65;42.46;101286.13;103656;1288;61298;-82
2023/05/07 04:57:39;;;;;;;;;;;;;;;19.65;42.25;101285.40;103567;1291;62317;-83
2023/05/07 05:00:08;;;;;;;;;;;;;;;19.66;42.42;101283.40;103586;1285;61366;-82
2023/05/07 05:02:33;;;;;;;;;;;;;;;19.66;42.32;101284.46;103594;1285;61246;-82
2023/05/07 05:05:02;;;;;;;;;;;;;;;19.66;42.42;101281.04;103474;1286;73470;-83
2023/05/07 05:07:31;;;;;;;;;;;;;;;19.67;42.32;101284.20;103591;1285;61403;-83
2023/05/07 05:09:57;;;;;;;;;;;;;;;19.68;42.31;101280.23;103668;1284;62683;-83
2023/05/07 05:12:23;;;;;;;;;;;;;;;19.69;42.44;101284.80;103585;1285;61299;-83
2023/05/07 05:14:52;;;;;;;;;;;;;;;19.69;42.39;101282.81;103690;1288;61454;-83
2023/05/07 05:17:17;;;;;;;;;;;;;;;19.71;42.46;101277.39;103615;1285;74562;-83
2023/05/07 05:19:43;;;;;;;;;;;;;;;19.72;42.24;101280.86;103489;1284;61463;-82
2023/05/07 05:22:09;;;;;;;;;;;;;;;19.73;42.19;101284.73;103595;1286;61408;-83
2023/05/07 05:24:35;;;;;;;;;;;;;;;19.74;42.31;101281.29;103708;1286;62443;-82
2023/05/07 05:27:06;;;;;;;;;;;;;;;19.75;42.32;101285.86;103574;1285;61779;-82
2023/05/07 05:29:32;;;;;;;;;;;;;;;19.76;42.30;101289.90;103773;1286;61294;-82
2023/05/07 05:31:58;;;;;;;;;;;;;;;19.78;42.10;101288.60;103628;1285;61386;-82
2023/05/07 05:34:27;;;;;;;;;;;;;;;19.79;42.20;101288.17;103657;1287;72665;-83
2023/05/07 05:36:55;;;;;;;;;;;;;;;19.80;42.18;101289.55;103384;1285;62606;-84
2023/05/07 05:39:23;;;;;;;;;;;;;;;19.81;42.22;101289.15;103634;1285;62357;-83
2023/05/07 05:41:48;;;;;;;;;;;;;;;19.82;42.22;101287.30;103701;1286;61369;-83
2023/05/07 05:44:14;;;;;;;;;;;;;;;19.83;42.18;101284.73;103429;1285;61474;-82
2023/05/07 05:46:40;;;;;;;;;;;;;;;19.84;42.03;101280.41;103774;1285;61393;-83
2023/05/07 05:49:08;;;;;;;;;;;;;;;19.85;41.99;101283.20;103640;1288;61391;-83
2023/05/07 05:51:36;;;;;;;;;;;;;;;19.86;42.21;101283.52;103599;1285;61505;-84
2023/05/07 05:54:05;;;;;;;;;;;;;;;19.87;42.08;101282.40;103681;1288;72277;-84
2023/05/07 05:56:31;;;;;;;;;;;;;;;19.87;42.15;101284.15;103606;1284;74374;-83
2023/05/07 05:58:58;;;;;;;;;;;;;;;19.88;42.18;101283.40;103735;1285;61401;-82
2023/05/07 06:01:24;;;;;;;;;;;;;;;19.90;42.11;101285.61;103541;1285;61691;-84
2023/05/07 06:03:49;;;;;;;;;;;;;;;19.90;42.08;101288.79;103692;1285;61420;-84
2023/05/07 06:06:15;;;;;;;;;;;;;;;19.91;42.12;101291.07;103548;1291;61438;-83
2023/05/07 06:08:41;;;;;;;;;;;;;;;19.92;42.03;101290.83;103660;1286;61736;-83
2023/05/07 06:11:15;;;;;;;;;;;;;;;19.92;42.06;101290.09;103370;1294;62469;-84
2023/05/07 06:13:41;;;;;;;;;;;;;;;19.93;42.05;101291.86;103078;1288;61678;-83
2023/05/07 06:16:07;;;;;;;;;;;;;;;19.93;41.97;101289.15;103105;1288;61464;-83
2023/05/07 06:18:32;;;;;;;;;;;;;;;19.93;41.95;101290.75;103153;1293;61378;-83
2023/05/07 06:20:58;;;;;;;;;;;;;;;19.94;42.12;101290.89;103120;1288;61462;-83
2023/05/07 06:23:24;;;;;;;;;;;;;;;19.95;41.89;101287.10;103357;1288;61564;-82
2023/05/07 06:25:50;;;;;;;;;;;;;;;19.96;42.11;101284.75;103142;1288;62417;-83
2023/05/07 06:28:16;;;;;;;;;;;;;;;19.97;42.11;101287.19;103388;1288;61503;-83
2023/05/07 06:30:41;;;;;;;;;;;;;;;19.97;41.96;101287.52;103123;1293;74595;-83
2023/05/07 06:33:07;;;;;;;;;;;;;;;19.97;42.08;101282.52;103096;1288;61424;-83
2023/05/07 06:35:32;;;;;;;;;;;;;;;19.98;42.17;101287.81;103443;1288;61392;-82
2023/05/07 06:37:59;;;;;;;;;;;;;;;19.98;42.04;101283.16;103020;1293;61405;-83
2023/05/07 06:40:25;;;;;;;;;;;;;;;19.98;41.96;101285.98;103134;1288;61585;-83
2023/05/07 06:42:53;;;;;;;;;;;;;;;19.99;41.97;101284.20;103096;1288;61448;-83
2023/05/07 06:45:19;;;;;;;;;;;;;;;20.00;41.98;101280.56;103114;1288;62396;-82
2023/05/07 06:47:48;;;;;;;;;;;;;;;20.00;41.84;101281.45;103070;1295;61900;-83
2023/05/07 06:50:21;;;;;;;;;;;;;;;20.00;41.88;101277.50;103723;1285;72216;-83
2023/05/07 06:52:47;;;;;;;;;;;;;;;20.01;41.86;101279.23;103661;1288;75425;-85
2023/05/07 06:55:13;;;;;;;;;;;;;;;20.01;41.93;101274.97;103717;1285;61479;-83
2023/05/07 06:57:41;;;;;;;;;;;;;;;20.01;41.85;101275.66;103677;1285;61379;-82
2023/05/07 07:00:08;;;;;;;;;;;;;;;20.01;41.83;101274.04;103707;1288;61272;-83
2023/05/07 07:02:34;;;;;;;;;;;;;;;20.01;41.79;101275.81;103630;1290;74504;-83
2023/05/07 07:05:00;;;;;;;;;;;;;;;20.02;41.81;101278.86;103089;1291;664360;-82
2023/05/07 07:07:26;;;;;;;;;;;;;;;20.02;41.82;101275.98;103799;1286;61430;-82
2023/05/07 07:09:52;;;;;;;;;;;;;;;20.02;41.87;101272.94;103519;1285;61443;-83
2023/05/07 07:12:18;;;;;;;;;;;;;;;20.02;41.92;101273.64;103560;1291;61390;-83
2023/05/07 07:14:43;;;;;;;;;;;;;;;20.02;41.76;101276.48;103709;1285;62602;-83
2023/05/07 07:17:09;;;;;;;;;;;;;;;20.02;41.90;101279.86;103587;1289;61659;-83
2023/05/07 07:19:35;;;;;;;;;;;;;;;20.02;41.94;101279.71;103517;1286;62390;-83
2023/05/07 07:22:00;;;;;;;;;;;;;;;20.03;41.83;101283.60;103502;1291;61395;-82
2023/05/07 07:24:26;;;;;;;;;;;;;;;20.02;41.86;101285.56;103776;1286;61379;-82
2023/05/07 07:26:55;;;;;;;;;;;;;;;20.03;41.80;101282.52;103679;1285;61419;-82
2023/05/07 07:29:20;;;;;;;;;;;;;;;20.02;41.81;101282.93;103692;1286;61366;-82
2023/05/07 07:31:49;;;;;;;;;;;;;;;20.03;41.86;101283.96;103642;1285;61412;-83
2023/05/07 07:34:15;;;;;;;;;;;;;;;20.02;41.72;101284.69;103712;1285;74582;-84
2023/05/07 07:36:41;;;;;;;;;;;;;;;20.02;41.81;101287.73;103650;1289;62517;-83
2023/05/07 07:39:07;;;;;;;;;;;;;;;20.03;41.72;101291.29;103483;1285;62437;-83
2023/05/07 07:41:43;;;;;;;;;;;;;;;20.03;41.67;101292.84;103600;1286;73413;-83
2023/05/07 07:44:17;;;;;;;;;;;;;;;20.03;41.76;101294.11;103481;1291;73764;-83
2023/05/07 07:46:45;;;;;;;;;;;;;;;20.03;41.77;101293.74;103407;1289;61394;-82
2023/05/07 07:49:14;;;;;;;;;;;;;;;20.03;41.75;101290.02;103368;1288;61456;-83
2023/05/07 07:51:40;;;;;;;;;;;;;;;20.03;41.79;101287.14;103512;1290;73239;-83
2023/05/07 07:54:06;;;;;;;;;;;;;;;20.03;41.75;101290.16;103433;1291;61598;-83
2023/05/07 07:56:33;;;;;;;;;;;;;;;20.03;41.65;101288.55;103444;1288;62477;-82
2023/05/07 07:58:58;;;;;;;;;;;;;;;20.03;41.71;101287.67;103369;1288;61408;-83
2023/05/07 08:01:24;;;;;;;;;;;;;;;20.03;41.73;101289.63;103335;1288;62446;-84
2023/05/07 08:03:50;;;;;;;;;;;;;;;20.03;41.75;101287.88;103370;1288;61491;-83
2023/05/07 08:06:18;;;;;;;;;;;;;;;20.03;41.63;101281.46;103407;1294;62627;-83
2023/05/07 08:08:46;;;;;;;;;;;;;;;20.03;41.90;101283.44;103419;1288;61699;-83
2023/05/07 08:11:15;;;;;;;;;;;;;;;20.03;41.69;101277.88;103445;1288;61211;-82
2023/05/07 08:14:06;;;;;;;;;;;;;;;20.03;41.61;101274.32;103123;1292;72858;-82
2023/05/07 08:16:32;;;;;;;;;;;;;;;20.03;41.73;101272.89;102889;1294;75535;-83
2023/05/07 08:18:59;;;;;;;;;;;;;;;20.03;41.68;101269.67;102989;1295;61342;-83
2023/05/07 08:21:27;;;;;;;;;;;;;;;20.03;41.79;101268.77;102949;1293;61335;-82
2023/05/07 08:23:56;;;;;;;;;;;;;;;20.03;41.76;101265.56;102915;1298;72450;-83
2023/05/07 08:26:21;;;;;;;;;;;;;;;20.03;41.65;101262.48;102876;1294;75456;-84
2023/05/07 08:28:49;;;;;;;;;;;;;;;20.03;41.82;101263.94;102957;1297;61329;-82
2023/05/07 08:31:21;;;;;;;;;;;;;;;20.03;41.77;101263.77;102881;1294;61422;-83
2023/05/07 08:33:50;;;;;;;;;;;;;;;20.03;41.79;101263.36;102915;1294;73781;-84
2023/05/07 08:36:15;;;;;;;;;;;;;;;20.03;41.71;101265.19;102953;1294;61497;-83
2023/05/07 08:38:42;;;;;;;;;;;;;;;20.03;41.65;101257.86;102859;1300;61406;-83
2023/05/07 08:41:10;;;;;;;;;;;;;;;20.03;41.75;101252.67;103068;1294;61490;-83
2023/05/07 08:43:35;;;;;;;;;;;;;;;20.03;41.77;101245.53;102938;1294;62129;-82
2023/05/07 08:46:04;;;;;;;;;;;;;;;20.03;41.85;101244.11;102887;1297;61405;-83
2023/05/07 08:48:32;;;;;;;;;;;;;;;20.03;41.69;101244.65;103062;1295;61387;-83
2023/05/07 08:50:58;;;;;;;;;;;;;;;20.03;41.93;101243.75;102919;1295;61392;-82
2023/05/07 08:53:24;;;;;;;;;;;;;;;20.03;41.81;101241.09;103134;1292;62111;-83
2023/05/07 08:55:55;;;;;;;;;;;;;;;20.03;41.75;101234.83;103546;1289;75751;-84
2023/05/07 08:58:26;;;;;;;;;;;;;;;20.02;41.88;101233.92;103538;1291;61349;-83
2023/05/07 09:00:55;;;;;;;;;;;;;;;20.03;41.83;101233.59;103559;1287;61360;-83
2023/05/07 09:03:21;;;;;;;;;;;;;;;20.02;41.68;101233.95;103683;1285;72487;-83
2023/05/07 09:05:50;;;;;;;;;;;;;;;20.02;41.92;101235.90;103656;1285;62458;-82
2023/05/07 09:08:16;;;;;;;;;;;;;;;20.03;41.81;101234.48;103577;1285;61317;-84
2023/05/07 09:10:57;;;;;;;;;;;;;;;20.02;41.96;101232.35;103658;1288;61285;-84
2023/05/07 09:13:25;;;;;;;;;;;;;;;20.02;42.02;101230.91;103486;1284;72564;-83
2023/05/07 09:15:51;;;;;;;;;;;;;;;20.02;41.93;101226.99;103531;1290;74464;-82
2023/05/07 09:18:17;;;;;;;;;;;;;;;20.02;41.80;101227.17;103617;1286;62541;-85
2023/05/07 09:20:42;;;;;;;;;;;;;;;20.02;41.73;101223.80;104122;1291;61278;-82
2023/05/07 09:23:08;;;;;;;;;;;;;;;20.02;41.81;101224.16;103887;1285;62655;-82
2023/05/07 09:25:34;;;;;;;;;;;;;;;20.02;41.81;101218.80;103730;1285;61302;-82
2023/05/07 09:28:00;;;;;;;;;;;;;;;20.02;41.80;101218.08;103619;1285;75227;-82
2023/05/07 09:30:33;;;;;;;;;;;;;;;20.02;41.76;101217.88;103692;1291;62435;-82
2023/05/07 09:32:59;;;;;;;;;;;;;;;20.01;41.98;101216.33;103789;1285;61383;-83
2023/05/07 09:35:27;;;;;;;;;;;;;;;20.02;41.94;101215.23;103673;1285;61280;-83
2023/05/07 09:37:58;;;;;;;;;;;;;;;20.02;42.02;101219.68;103701;1283;75196;-83
2023/05/07 09:40:25;;;;;;;;;;;;;;;20.02;42.01;101217.20;103682;1285;61428;-83
2023/05/07 09:42:50;;;;;;;;;;;;;;;20.02;41.95;101212.56;104004;1285;63414;-82
2023/05/07 09:45:16;;;;;;;;;;;;;;;20.01;41.88;101208.30;103780;1289;61468;-83
2023/05/07 09:47:44;;;;;;;;;;;;;;;20.01;41.79;101203.29;103711;1290;61378;-82
2023/05/07 09:50:10;;;;;;;;;;;;;;;20.02;41.99;101203.81;103844;1285;61318;-83
2023/05/07 09:52:36;;;;;;;;;;;;;;;20.01;41.96;101204.73;103720;1286;61442;-83
2023/05/07 09:55:10;;;;;;;;;;;;;;;20.02;41.96;101203.09;103848;1288;72557;-82
2023/05/07 09:57:36;;;;;;;;;;;;;;;20.02;41.96;101203.27;103672;1292;61409;-82
2023/05/07 10:00:05;;;;;;;;;;;;;;;20.01;42.01;101199.19;103659;1285;61631;-84
2023/05/07 10:02:32;;;;;;;;;;;;;;;20.01;41.87;101207.42;103642;1289;61298;-83
2023/05/07 10:05:00;;;;;;;;;;;;;;;20.01;42.03;101208.48;103809;1286;62640;-83
2023/05/07 10:07:25;;;;;;;;;;;;;;;20.01;41.96;101200.26;103795;1288;75352;-84
2023/05/07 10:09:51;;;;;;;;;;;;;;;20.01;41.90;101195.27;103624;1286;61413;-83
2023/05/07 10:12:17;;;;;;;;;;;;;;;20.01;42.06;101192.06;103712;1289;62434;-81
2023/05/07 10:14:43;;;;;;;;;;;;;;;20.00;41.94;101186.38;103619;1283;61447;-83
2023/05/07 10:17:11;;;;;;;;;;;;;;;20.00;42.02;101186.55;103599;1286;61391;-83
2023/05/07 10:19:43;;;;;;;;;;;;;;;20.00;41.98;101180.31;103920;1285;61273;-83
2023/05/07 10:22:11;;;;;;;;;;;;;;;20.00;41.83;101173.17;103780;1285;61288;-83
2023/05/07 10:24:37;;;;;;;;;;;;;;;19.99;42.01;101172.50;103808;1287;74096;-82
2023/05/07 10:27:10;;;;;;;;;;;;;;;20.00;42.09;101170.14;103856;1286;61269;-83
2023/05/07 10:29:51;;;;;;;;;;;;;;;20.00;42.08;101168.55;103640;1286;61315;-83
2023/05/07 10:32:20;;;;;;;;;;;;;;;20.00;41.97;101166.94;103845;1288;61400;-84
2023/05/07 10:34:47;;;;;;;;;;;;;;;20.00;42.04;101167.11;103864;1286;72356;-82
2023/05/07 10:37:12;;;;;;;;;;;;;;;19.99;41.99;101163.38;103613;1291;74494;-83
2023/05/07 10:39:41;;;;;;;;;;;;;;;19.99;42.07;101163.75;103672;1286;61315;-84
2023/05/07 10:42:08;;;;;;;;;;;;;;;19.99;42.05;101160.02;103709;1291;61398;-83
2023/05/07 10:44:36;;;;;;;;;;;;;;;19.99;42.07;101155.00;103581;1284;62451;-83
2023/05/07 10:47:08;;;;;;;;;;;;;;;19.99;42.05;101158.58;103689;1289;74497;-82
2023/05/07 10:49:43;;;;;;;;;;;;;;;19.99;41.93;101155.20;103679;1287;62073;-83
2023/05/07 10:52:23;;;;;;;;;;;;;;;20.00;42.11;101159.27;103852;1286;61302;-83
2023/05/07 10:54:48;;;;;;;;;;;;;;;19.99;42.00;101154.80;103874;1286;73895;-83
2023/05/07 10:57:40;;;;;;;;;;;;;;;19.99;42.01;101153.02;103631;1289;61372;-83
2023/05/07 11:00:26;;;;;;;;;;;;;;;20.00;41.95;101149.08;103788;1286;61327;-84
2023/05/07 11:03:22;;;;;;;;;;;;;;;19.99;42.20;101140.86;103832;1286;61391;-82
2023/05/07 11:05:48;;;;;;;;;;;;;;;20.00;42.10;101132.44;103836;1287;73568;-83
2023/05/07 11:08:15;;;;;;;;;;;;;;;20.00;42.10;101129.77;103594;1285;75517;-83
2023/05/07 11:10:54;;;;;;;;;;;;;;;20.00;42.23;101129.41;103675;1286;61541;-83
2023/05/07 11:13:39;;;;;;;;;;;;;;;20.00;42.03;101127.44;103775;1286;61291;-84
2023/05/07 11:16:16;;;;;;;;;;;;;;;20.00;41.94;101126.38;103755;1288;73250;-83
2023/05/07 11:18:48;;;;;;;;;;;;;;;20.00;42.02;101124.05;103935;1288;74543;-82
2023/05/07 11:21:20;;;;;;;;;;;;;;;20.00;42.08;101126.35;103848;1287;62610;-82
2023/05/07 11:23:49;;;;;;;;;;;;;;;20.01;42.12;101123.64;103706;1286;61352;-82
2023/05/07 11:26:14;;;;;;;;;;;;;;;20.00;42.12;101123.13;103837;1285;71349;-82
2023/05/07 11:28:41;;;;;;;;;;;;;;;20.01;42.06;101122.94;103609;1291;61323;-82
2023/05/07 11:31:07;;;;;;;;;;;;;;;20.00;42.04;101122.95;103611;1288;61491;-82
2023/05/07 11:33:33;;;;;;;;;;;;;;;20.01;42.09;101120.43;103751;1286;61448;-82
2023/05/07 11:36:01;;;;;;;;;;;;;;;20.01;42.04;101116.13;103671;1286;61473;-82
2023/05/07 11:38:27;;;;;;;;;;;;;;;20.00;42.12;101119.55;103800;1289;61377;-82
2023/05/07 11:40:53;;;;;;;;;;;;;;;20.01;42.12;101122.36;103695;1289;62696;-83
2023/05/07 11:43:19;;;;;;;;;;;;;;;20.01;42.14;101123.59;103787;1285;61499;-84
2023/05/07 11:45:47;;;;;;;;;;;;;;;20.01;42.00;101121.48;103665;1289;62387;-82
2023/05/07 11:48:13;;;;;;;;;;;;;;;20.02;42.21;101117.51;103753;1288;61262;-83
2023/05/07 11:50:52;;;;;;;;;;;;;;;20.02;42.13;101120.16;103726;1289;61825;-84
2023/05/07 11:53:18;;;;;;;;;;;;;;;20.02;42.25;101118.02;103783;1291;61302;-83
2023/05/07 11:55:44;;;;;;;;;;;;;;;20.03;42.13;101110.13;104156;1285;61387;-82
2023/05/07 11:58:19;;;;;;;;;;;;;;;20.03;42.38;101110.28;103683;1290;61442;-82
2023/05/07 12:00:52;;;;;;;;;;;;;;;20.04;42.29;101112.52;103792;1286;61410;-83
2023/05/07 12:03:18;;;;;;;;;;;;;;;20.04;42.35;101106.45;103592;1290;61455;-82
2023/05/07 12:05:47;;;;;;;;;;;;;;;20.04;42.15;101106.43;103827;1288;61416;-82
2023/05/07 12:08:16;;;;;;;;;;;;;;;20.05;42.08;101107.09;103645;1285;74512;-83
2023/05/07 12:10:43;;;;;;;;;;;;;;;20.06;42.20;101109.91;103560;1287;61329;-83
2023/05/07 12:13:18;;;;;;;;;;;;;;;20.06;42.09;101112.04;103721;1288;61384;-82
2023/05/07 12:15:43;;;;;;;;;;;;;;;20.06;42.37;101108.83;104065;1291;73390;-81
2023/05/07 12:18:09;;;;;;;;;;;;;;;20.07;42.17;101102.86;103905;1301;61396;-82
2023/05/07 12:20:36;;;;;;;;;;;;;;;20.07;42.37;101094.29;103684;1290;61472;-82
2023/05/07 12:23:01;;;;;;;;;;;;;;;20.08;42.22;101091.91;103984;1292;61342;-82
2023/05/07 12:25:30;;;;;;;;;;;;;;;20.09;42.15;101092.94;104027;1291;61388;-83
2023/05/07 12:27:58;;;;;;;;;;;;;;;20.09;42.25;101091.51;103674;1286;74457;-83